sensor_id;sensor_type;location;lat;lon;timestamp;P1;durP1;ratioP1;P2;durP2;ratioP2
19030;SDS011;9648;51.130;13.978;2023-08-12T00:00:18;5.77;;;3.40;;
19030;SDS011;9648;51.130;13.978;2023-08-12T00:02:45;5.82;;;3.50;;
19030;SDS011;9648;51.130;13.978;2023-08-12T00:05:12;5.93;;;3.60;;
19030;SDS011;9648;51.130;13.978;2023-08-12T00:07:40;5.38;;;3.55;;
19030;SDS011;9648;51.130;13.978;2023-08-12T00:10:08;3.83;;;2.90;;
19030;SDS011;9648;51.130;13.978;2023-08-12T00:12:37;4.55;;;3.22;;
19030;SDS011;9648;51.130;13.978;2023-08-12T00:15:05;6.47;;;3.28;;
19030;SDS011;9648;51.130;13.978;2023-08-12T00:17:33;5.72;;;3.10;;
19030;SDS011;9648;51.130;13.978;2023-08-12T00:20:01;4.53;;;2.90;;
19030;SDS011;9648;51.130;13.978;2023-08-12T00:22:30;5.40;;;3.40;;
19030;SDS011;9648;51.130;13.978;2023-08-12T00:24:57;4.80;;;3.20;;
19030;SDS011;9648;51.130;13.978;2023-08-12T00:27:24;5.47;;;3.10;;
19030;SDS011;9648;51.130;13.978;2023-08-12T00:29:52;5.88;;;3.20;;
19030;SDS011;9648;51.130;13.978;2023-08-12T00:32:19;4.75;;;3.25;;
19030;SDS011;9648;51.130;13.978;2023-08-12T00:34:45;3.63;;;3.00;;
19030;SDS011;9648;51.130;13.978;2023-08-12T00:37:12;4.03;;;3.00;;
19030;SDS011;9648;51.130;13.978;2023-08-12T00:39:39;6.55;;;3.63;;
19030;SDS011;9648;51.130;13.978;2023-08-12T00:42:06;5.53;;;3.08;;
19030;SDS011;9648;51.130;13.978;2023-08-12T00:44:32;3.75;;;3.08;;
19030;SDS011;9648;51.130;13.978;2023-08-12T00:47:01;4.80;;;3.00;;
19030;SDS011;9648;51.130;13.978;2023-08-12T00:49:28;6.95;;;3.30;;
19030;SDS011;9648;51.130;13.978;2023-08-12T00:51:55;5.45;;;3.38;;
19030;SDS011;9648;51.130;13.978;2023-08-12T00:54:22;4.70;;;3.60;;
19030;SDS011;9648;51.130;13.978;2023-08-12T00:56:53;5.60;;;3.42;;
19030;SDS011;9648;51.130;13.978;2023-08-12T00:59:20;5.40;;;3.60;;
19030;SDS011;9648;51.130;13.978;2023-08-12T01:01:48;5.38;;;3.60;;
19030;SDS011;9648;51.130;13.978;2023-08-12T01:04:16;4.20;;;3.43;;
19030;SDS011;9648;51.130;13.978;2023-08-12T01:06:43;5.15;;;3.40;;
19030;SDS011;9648;51.130;13.978;2023-08-12T01:09:10;4.03;;;3.10;;
19030;SDS011;9648;51.130;13.978;2023-08-12T01:11:39;5.78;;;3.58;;
19030;SDS011;9648;51.130;13.978;2023-08-12T01:14:14;4.80;;;3.38;;
19030;SDS011;9648;51.130;13.978;2023-08-12T01:16:45;3.85;;;3.00;;
19030;SDS011;9648;51.130;13.978;2023-08-12T01:19:19;4.63;;;3.42;;
19030;SDS011;9648;51.130;13.978;2023-08-12T01:21:54;4.13;;;3.08;;
19030;SDS011;9648;51.130;13.978;2023-08-12T01:24:26;3.70;;;2.80;;
19030;SDS011;9648;51.130;13.978;2023-08-12T01:26:53;6.17;;;3.30;;
19030;SDS011;9648;51.130;13.978;2023-08-12T01:29:20;4.90;;;3.03;;
19030;SDS011;9648;51.130;13.978;2023-08-12T01:31:48;3.70;;;2.85;;
19030;SDS011;9648;51.130;13.978;2023-08-12T01:34:21;5.07;;;3.10;;
19030;SDS011;9648;51.130;13.978;2023-08-12T01:36:55;4.88;;;3.00;;
19030;SDS011;9648;51.130;13.978;2023-08-12T01:39:24;3.97;;;3.28;;
19030;SDS011;9648;51.130;13.978;2023-08-12T01:41:54;4.88;;;3.28;;
19030;SDS011;9648;51.130;13.978;2023-08-12T01:44:22;5.07;;;3.20;;
19030;SDS011;9648;51.130;13.978;2023-08-12T01:46:49;4.55;;;3.13;;
19030;SDS011;9648;51.130;13.978;2023-08-12T01:49:16;4.72;;;3.20;;
19030;SDS011;9648;51.130;13.978;2023-08-12T01:51:43;5.37;;;3.23;;
19030;SDS011;9648;51.130;13.978;2023-08-12T01:54:10;5.10;;;3.20;;
19030;SDS011;9648;51.130;13.978;2023-08-12T01:56:38;5.30;;;3.30;;
19030;SDS011;9648;51.130;13.978;2023-08-12T01:59:05;5.70;;;2.90;;
19030;SDS011;9648;51.130;13.978;2023-08-12T02:01:32;4.93;;;2.77;;
19030;SDS011;9648;51.130;13.978;2023-08-12T02:03:59;4.05;;;2.92;;
19030;SDS011;9648;51.130;13.978;2023-08-12T02:06:26;5.25;;;2.78;;
19030;SDS011;9648;51.130;13.978;2023-08-12T02:08:58;4.70;;;3.10;;
19030;SDS011;9648;51.130;13.978;2023-08-12T02:11:25;4.35;;;2.80;;
19030;SDS011;9648;51.130;13.978;2023-08-12T02:13:53;4.37;;;2.80;;
19030;SDS011;9648;51.130;13.978;2023-08-12T02:16:20;4.57;;;3.10;;
19030;SDS011;9648;51.130;13.978;2023-08-12T02:18:47;3.63;;;2.80;;
19030;SDS011;9648;51.130;13.978;2023-08-12T02:21:14;4.38;;;3.00;;
19030;SDS011;9648;51.130;13.978;2023-08-12T02:23:40;4.70;;;2.63;;
19030;SDS011;9648;51.130;13.978;2023-08-12T02:26:09;3.85;;;2.63;;
19030;SDS011;9648;51.130;13.978;2023-08-12T02:28:36;3.72;;;2.90;;
19030;SDS011;9648;51.130;13.978;2023-08-12T02:31:04;3.97;;;2.85;;
19030;SDS011;9648;51.130;13.978;2023-08-12T02:33:31;3.60;;;2.65;;
19030;SDS011;9648;51.130;13.978;2023-08-12T02:35:58;5.27;;;3.00;;
19030;SDS011;9648;51.130;13.978;2023-08-12T02:38:24;3.83;;;2.85;;
19030;SDS011;9648;51.130;13.978;2023-08-12T02:40:51;4.13;;;2.93;;
19030;SDS011;9648;51.130;13.978;2023-08-12T02:43:18;5.60;;;3.03;;
19030;SDS011;9648;51.130;13.978;2023-08-12T02:45:45;3.47;;;2.80;;
19030;SDS011;9648;51.130;13.978;2023-08-12T02:48:13;4.22;;;2.83;;
19030;SDS011;9648;51.130;13.978;2023-08-12T02:50:40;5.50;;;3.10;;
19030;SDS011;9648;51.130;13.978;2023-08-12T02:53:07;3.75;;;2.78;;
19030;SDS011;9648;51.130;13.978;2023-08-12T02:55:34;6.47;;;3.20;;
19030;SDS011;9648;51.130;13.978;2023-08-12T02:58:03;3.30;;;2.70;;
19030;SDS011;9648;51.130;13.978;2023-08-12T03:00:30;3.75;;;2.80;;
19030;SDS011;9648;51.130;13.978;2023-08-12T03:02:55;4.85;;;3.15;;
19030;SDS011;9648;51.130;13.978;2023-08-12T03:05:24;7.65;;;3.35;;
19030;SDS011;9648;51.130;13.978;2023-08-12T03:07:50;5.20;;;3.25;;
19030;SDS011;9648;51.130;13.978;2023-08-12T03:10:17;3.75;;;2.70;;
19030;SDS011;9648;51.130;13.978;2023-08-12T03:12:44;4.63;;;3.15;;
19030;SDS011;9648;51.130;13.978;2023-08-12T03:15:12;4.40;;;3.30;;
19030;SDS011;9648;51.130;13.978;2023-08-12T03:17:38;3.97;;;3.00;;
19030;SDS011;9648;51.130;13.978;2023-08-12T03:20:07;3.65;;;3.00;;
19030;SDS011;9648;51.130;13.978;2023-08-12T03:22:36;4.90;;;3.00;;
19030;SDS011;9648;51.130;13.978;2023-08-12T03:25:03;4.75;;;3.05;;
19030;SDS011;9648;51.130;13.978;2023-08-12T03:27:30;3.37;;;2.80;;
19030;SDS011;9648;51.130;13.978;2023-08-12T03:29:57;6.43;;;3.33;;
19030;SDS011;9648;51.130;13.978;2023-08-12T03:32:24;4.70;;;3.10;;
19030;SDS011;9648;51.130;13.978;2023-08-12T03:34:51;5.82;;;3.15;;
19030;SDS011;9648;51.130;13.978;2023-08-12T03:37:19;3.63;;;2.90;;
19030;SDS011;9648;51.130;13.978;2023-08-12T03:39:47;4.47;;;3.03;;
19030;SDS011;9648;51.130;13.978;2023-08-12T03:42:13;4.13;;;2.80;;
19030;SDS011;9648;51.130;13.978;2023-08-12T03:44:41;4.38;;;3.25;;
19030;SDS011;9648;51.130;13.978;2023-08-12T03:47:08;4.40;;;3.15;;
19030;SDS011;9648;51.130;13.978;2023-08-12T03:49:35;4.70;;;3.08;;
19030;SDS011;9648;51.130;13.978;2023-08-12T03:52:02;4.22;;;3.10;;
19030;SDS011;9648;51.130;13.978;2023-08-12T03:54:32;3.97;;;3.05;;
19030;SDS011;9648;51.130;13.978;2023-08-12T03:57:00;4.10;;;3.20;;
19030;SDS011;9648;51.130;13.978;2023-08-12T03:59:27;5.07;;;2.97;;
19030;SDS011;9648;51.130;13.978;2023-08-12T04:01:53;4.80;;;3.00;;
19030;SDS011;9648;51.130;13.978;2023-08-12T04:04:20;4.03;;;3.17;;
19030;SDS011;9648;51.130;13.978;2023-08-12T04:06:47;4.53;;;3.35;;
19030;SDS011;9648;51.130;13.978;2023-08-12T04:09:16;4.50;;;3.20;;
19030;SDS011;9648;51.130;13.978;2023-08-12T04:11:43;3.53;;;3.00;;
19030;SDS011;9648;51.130;13.978;2023-08-12T04:14:11;3.70;;;3.00;;
19030;SDS011;9648;51.130;13.978;2023-08-12T04:16:38;4.70;;;2.97;;
19030;SDS011;9648;51.130;13.978;2023-08-12T04:19:05;3.77;;;2.80;;
19030;SDS011;9648;51.130;13.978;2023-08-12T04:21:32;4.13;;;3.10;;
19030;SDS011;9648;51.130;13.978;2023-08-12T04:23:58;3.60;;;2.85;;
19030;SDS011;9648;51.130;13.978;2023-08-12T04:26:25;4.05;;;3.10;;
19030;SDS011;9648;51.130;13.978;2023-08-12T04:28:52;5.07;;;3.10;;
19030;SDS011;9648;51.130;13.978;2023-08-12T04:31:20;3.28;;;2.72;;
19030;SDS011;9648;51.130;13.978;2023-08-12T04:33:47;4.55;;;3.10;;
19030;SDS011;9648;51.130;13.978;2023-08-12T04:36:14;4.28;;;3.13;;
19030;SDS011;9648;51.130;13.978;2023-08-12T04:38:41;3.47;;;2.90;;
19030;SDS011;9648;51.130;13.978;2023-08-12T04:41:08;3.78;;;2.92;;
19030;SDS011;9648;51.130;13.978;2023-08-12T04:43:35;6.43;;;3.40;;
19030;SDS011;9648;51.130;13.978;2023-08-12T04:46:01;3.28;;;2.95;;
19030;SDS011;9648;51.130;13.978;2023-08-12T04:48:29;6.07;;;3.10;;
19030;SDS011;9648;51.130;13.978;2023-08-12T04:50:57;4.63;;;2.88;;
19030;SDS011;9648;51.130;13.978;2023-08-12T04:53:26;4.28;;;2.90;;
19030;SDS011;9648;51.130;13.978;2023-08-12T04:55:53;4.28;;;2.90;;
19030;SDS011;9648;51.130;13.978;2023-08-12T04:58:21;4.30;;;3.22;;
19030;SDS011;9648;51.130;13.978;2023-08-12T05:00:48;3.17;;;2.80;;
19030;SDS011;9648;51.130;13.978;2023-08-12T05:03:15;5.05;;;2.95;;
19030;SDS011;9648;51.130;13.978;2023-08-12T05:05:43;3.88;;;2.92;;
19030;SDS011;9648;51.130;13.978;2023-08-12T05:08:14;5.65;;;3.03;;
19030;SDS011;9648;51.130;13.978;2023-08-12T05:10:41;4.85;;;2.75;;
19030;SDS011;9648;51.130;13.978;2023-08-12T05:13:07;3.85;;;2.90;;
19030;SDS011;9648;51.130;13.978;2023-08-12T05:15:34;3.42;;;2.55;;
19030;SDS011;9648;51.130;13.978;2023-08-12T05:18:02;4.00;;;2.80;;
19030;SDS011;9648;51.130;13.978;2023-08-12T05:20:29;3.72;;;2.90;;
19030;SDS011;9648;51.130;13.978;2023-08-12T05:22:57;4.97;;;2.83;;
19030;SDS011;9648;51.130;13.978;2023-08-12T05:25:24;4.00;;;2.97;;
19030;SDS011;9648;51.130;13.978;2023-08-12T05:27:50;4.50;;;3.10;;
19030;SDS011;9648;51.130;13.978;2023-08-12T05:30:17;3.83;;;2.75;;
19030;SDS011;9648;51.130;13.978;2023-08-12T05:32:44;3.30;;;2.83;;
19030;SDS011;9648;51.130;13.978;2023-08-12T05:35:11;3.10;;;2.60;;
19030;SDS011;9648;51.130;13.978;2023-08-12T05:37:38;5.68;;;3.00;;
19030;SDS011;9648;51.130;13.978;2023-08-12T05:40:07;4.00;;;3.17;;
19030;SDS011;9648;51.130;13.978;2023-08-12T05:42:35;3.63;;;2.85;;
19030;SDS011;9648;51.130;13.978;2023-08-12T05:45:02;4.10;;;2.90;;
19030;SDS011;9648;51.130;13.978;2023-08-12T05:47:29;5.00;;;3.00;;
19030;SDS011;9648;51.130;13.978;2023-08-12T05:49:57;3.65;;;2.53;;
19030;SDS011;9648;51.130;13.978;2023-08-12T05:52:24;3.73;;;2.77;;
19030;SDS011;9648;51.130;13.978;2023-08-12T05:54:51;3.97;;;2.90;;
19030;SDS011;9648;51.130;13.978;2023-08-12T05:57:19;3.58;;;2.63;;
19030;SDS011;9648;51.130;13.978;2023-08-12T05:59:45;3.60;;;2.72;;
19030;SDS011;9648;51.130;13.978;2023-08-12T06:02:12;4.45;;;2.90;;
19030;SDS011;9648;51.130;13.978;2023-08-12T06:04:39;4.03;;;2.58;;
19030;SDS011;9648;51.130;13.978;2023-08-12T06:07:06;5.93;;;2.80;;
19030;SDS011;9648;51.130;13.978;2023-08-12T06:09:33;3.17;;;2.55;;
19030;SDS011;9648;51.130;13.978;2023-08-12T06:12:00;4.40;;;2.90;;
19030;SDS011;9648;51.130;13.978;2023-08-12T06:14:28;3.83;;;2.80;;
19030;SDS011;9648;51.130;13.978;2023-08-12T06:16:54;4.20;;;2.60;;
19030;SDS011;9648;51.130;13.978;2023-08-12T06:19:21;4.03;;;2.63;;
19030;SDS011;9648;51.130;13.978;2023-08-12T06:21:48;2.85;;;2.50;;
19030;SDS011;9648;51.130;13.978;2023-08-12T06:24:15;4.43;;;2.75;;
19030;SDS011;9648;51.130;13.978;2023-08-12T06:26:42;4.28;;;2.65;;
19030;SDS011;9648;51.130;13.978;2023-08-12T06:29:08;3.95;;;2.60;;
19030;SDS011;9648;51.130;13.978;2023-08-12T06:31:36;3.38;;;2.42;;
19030;SDS011;9648;51.130;13.978;2023-08-12T06:34:03;3.58;;;2.50;;
19030;SDS011;9648;51.130;13.978;2023-08-12T06:36:30;4.85;;;2.60;;
19030;SDS011;9648;51.130;13.978;2023-08-12T06:38:57;3.38;;;2.75;;
19030;SDS011;9648;51.130;13.978;2023-08-12T06:41:24;4.95;;;2.85;;
19030;SDS011;9648;51.130;13.978;2023-08-12T06:43:50;4.05;;;2.60;;
19030;SDS011;9648;51.130;13.978;2023-08-12T06:46:17;3.63;;;2.50;;
19030;SDS011;9648;51.130;13.978;2023-08-12T06:48:46;4.85;;;2.80;;
19030;SDS011;9648;51.130;13.978;2023-08-12T06:51:12;3.60;;;2.40;;
19030;SDS011;9648;51.130;13.978;2023-08-12T06:53:39;4.72;;;2.85;;
19030;SDS011;9648;51.130;13.978;2023-08-12T06:56:06;3.22;;;2.50;;
19030;SDS011;9648;51.130;13.978;2023-08-12T06:58:33;3.83;;;2.60;;
19030;SDS011;9648;51.130;13.978;2023-08-12T07:01:00;5.85;;;2.83;;
19030;SDS011;9648;51.130;13.978;2023-08-12T07:03:26;4.82;;;2.90;;
19030;SDS011;9648;51.130;13.978;2023-08-12T07:05:55;5.03;;;3.03;;
19030;SDS011;9648;51.130;13.978;2023-08-12T07:08:21;5.25;;;2.92;;
19030;SDS011;9648;51.130;13.978;2023-08-12T07:10:48;4.20;;;2.50;;
19030;SDS011;9648;51.130;13.978;2023-08-12T07:13:15;5.78;;;2.60;;
19030;SDS011;9648;51.130;13.978;2023-08-12T07:15:42;3.50;;;2.65;;
19030;SDS011;9648;51.130;13.978;2023-08-12T07:18:08;4.53;;;2.70;;
19030;SDS011;9648;51.130;13.978;2023-08-12T07:20:35;4.82;;;2.90;;
19030;SDS011;9648;51.130;13.978;2023-08-12T07:23:03;4.20;;;2.77;;
19030;SDS011;9648;51.130;13.978;2023-08-12T07:25:30;4.50;;;2.63;;
19030;SDS011;9648;51.130;13.978;2023-08-12T07:27:57;5.00;;;2.90;;
19030;SDS011;9648;51.130;13.978;2023-08-12T07:30:24;3.53;;;2.70;;
19030;SDS011;9648;51.130;13.978;2023-08-12T07:32:51;3.40;;;2.50;;
19030;SDS011;9648;51.130;13.978;2023-08-12T07:35:18;3.20;;;2.47;;
19030;SDS011;9648;51.130;13.978;2023-08-12T07:37:45;4.00;;;2.60;;
19030;SDS011;9648;51.130;13.978;2023-08-12T07:40:13;4.88;;;2.92;;
19030;SDS011;9648;51.130;13.978;2023-08-12T07:42:40;5.57;;;2.90;;
19030;SDS011;9648;51.130;13.978;2023-08-12T07:45:07;3.67;;;2.55;;
19030;SDS011;9648;51.130;13.978;2023-08-12T07:47:35;6.13;;;2.95;;
19030;SDS011;9648;51.130;13.978;2023-08-12T07:50:01;4.27;;;2.70;;
19030;SDS011;9648;51.130;13.978;2023-08-12T07:52:28;4.57;;;2.80;;
19030;SDS011;9648;51.130;13.978;2023-08-12T07:54:55;3.88;;;2.70;;
19030;SDS011;9648;51.130;13.978;2023-08-12T07:57:23;3.85;;;2.70;;
19030;SDS011;9648;51.130;13.978;2023-08-12T07:59:50;4.10;;;2.50;;
19030;SDS011;9648;51.130;13.978;2023-08-12T08:02:17;2.87;;;2.43;;
19030;SDS011;9648;51.130;13.978;2023-08-12T08:04:44;4.60;;;2.83;;
19030;SDS011;9648;51.130;13.978;2023-08-12T08:07:14;4.30;;;2.65;;
19030;SDS011;9648;51.130;13.978;2023-08-12T08:09:41;6.53;;;2.58;;
19030;SDS011;9648;51.130;13.978;2023-08-12T08:12:08;4.18;;;2.63;;
19030;SDS011;9648;51.130;13.978;2023-08-12T08:14:36;3.95;;;2.80;;
19030;SDS011;9648;51.130;13.978;2023-08-12T08:17:03;4.45;;;2.70;;
19030;SDS011;9648;51.130;13.978;2023-08-12T08:19:30;6.13;;;2.80;;
19030;SDS011;9648;51.130;13.978;2023-08-12T08:21:57;4.00;;;2.70;;
19030;SDS011;9648;51.130;13.978;2023-08-12T08:24:24;4.28;;;2.50;;
19030;SDS011;9648;51.130;13.978;2023-08-12T08:26:51;7.07;;;3.13;;
19030;SDS011;9648;51.130;13.978;2023-08-12T08:29:18;3.40;;;2.60;;
19030;SDS011;9648;51.130;13.978;2023-08-12T08:31:46;3.63;;;2.70;;
19030;SDS011;9648;51.130;13.978;2023-08-12T08:34:12;5.10;;;2.53;;
19030;SDS011;9648;51.130;13.978;2023-08-12T08:36:39;3.30;;;2.30;;
19030;SDS011;9648;51.130;13.978;2023-08-12T08:39:06;4.55;;;2.63;;
19030;SDS011;9648;51.130;13.978;2023-08-12T08:41:34;4.63;;;2.38;;
19030;SDS011;9648;51.130;13.978;2023-08-12T08:44:05;2.75;;;2.30;;
19030;SDS011;9648;51.130;13.978;2023-08-12T08:46:34;3.80;;;2.40;;
19030;SDS011;9648;51.130;13.978;2023-08-12T08:49:03;5.13;;;2.50;;
19030;SDS011;9648;51.130;13.978;2023-08-12T08:51:31;3.63;;;2.47;;
19030;SDS011;9648;51.130;13.978;2023-08-12T08:53:59;4.43;;;2.60;;
19030;SDS011;9648;51.130;13.978;2023-08-12T08:56:28;4.40;;;2.72;;
19030;SDS011;9648;51.130;13.978;2023-08-12T08:58:55;5.07;;;2.95;;
19030;SDS011;9648;51.130;13.978;2023-08-12T09:01:21;3.67;;;2.73;;
19030;SDS011;9648;51.130;13.978;2023-08-12T09:03:50;4.35;;;2.88;;
19030;SDS011;9648;51.130;13.978;2023-08-12T09:06:20;4.15;;;2.63;;
19030;SDS011;9648;51.130;13.978;2023-08-12T09:08:49;5.15;;;2.70;;
19030;SDS011;9648;51.130;13.978;2023-08-12T09:11:18;9.48;;;3.15;;
19030;SDS011;9648;51.130;13.978;2023-08-12T09:13:45;4.40;;;2.58;;
19030;SDS011;9648;51.130;13.978;2023-08-12T09:16:13;3.40;;;2.28;;
19030;SDS011;9648;51.130;13.978;2023-08-12T09:18:41;3.13;;;2.33;;
19030;SDS011;9648;51.130;13.978;2023-08-12T09:21:09;3.72;;;2.80;;
19030;SDS011;9648;51.130;13.978;2023-08-12T09:23:38;6.03;;;2.20;;
19030;SDS011;9648;51.130;13.978;2023-08-12T09:26:13;3.37;;;2.10;;
19030;SDS011;9648;51.130;13.978;2023-08-12T09:28:42;3.13;;;2.28;;
19030;SDS011;9648;51.130;13.978;2023-08-12T09:31:11;3.22;;;2.30;;
19030;SDS011;9648;51.130;13.978;2023-08-12T09:33:48;2.88;;;2.20;;
19030;SDS011;9648;51.130;13.978;2023-08-12T09:36:15;4.15;;;2.60;;
19030;SDS011;9648;51.130;13.978;2023-08-12T09:38:43;5.15;;;2.20;;
19030;SDS011;9648;51.130;13.978;2023-08-12T09:41:10;2.95;;;2.30;;
19030;SDS011;9648;51.130;13.978;2023-08-12T09:43:39;4.05;;;2.10;;
19030;SDS011;9648;51.130;13.978;2023-08-12T09:46:07;3.78;;;2.35;;
19030;SDS011;9648;51.130;13.978;2023-08-12T09:48:37;2.87;;;2.00;;
19030;SDS011;9648;51.130;13.978;2023-08-12T09:51:04;3.72;;;2.10;;
19030;SDS011;9648;51.130;13.978;2023-08-12T09:53:32;3.40;;;2.00;;
19030;SDS011;9648;51.130;13.978;2023-08-12T09:56:02;3.40;;;1.90;;
19030;SDS011;9648;51.130;13.978;2023-08-12T09:58:32;3.00;;;1.90;;
19030;SDS011;9648;51.130;13.978;2023-08-12T10:01:02;5.13;;;2.30;;
19030;SDS011;9648;51.130;13.978;2023-08-12T10:03:29;3.13;;;2.13;;
19030;SDS011;9648;51.130;13.978;2023-08-12T10:05:57;4.22;;;2.17;;
19030;SDS011;9648;51.130;13.978;2023-08-12T10:08:25;3.57;;;2.20;;
19030;SDS011;9648;51.130;13.978;2023-08-12T10:10:53;2.97;;;2.10;;
19030;SDS011;9648;51.130;13.978;2023-08-12T10:13:21;3.08;;;2.00;;
19030;SDS011;9648;51.130;13.978;2023-08-12T10:15:48;3.50;;;1.80;;
19030;SDS011;9648;51.130;13.978;2023-08-12T10:18:16;2.47;;;1.70;;
19030;SDS011;9648;51.130;13.978;2023-08-12T10:20:45;2.60;;;1.90;;
19030;SDS011;9648;51.130;13.978;2023-08-12T10:23:14;3.78;;;1.63;;
19030;SDS011;9648;51.130;13.978;2023-08-12T10:25:43;3.03;;;1.77;;
19030;SDS011;9648;51.130;13.978;2023-08-12T10:28:10;3.05;;;1.83;;
19030;SDS011;9648;51.130;13.978;2023-08-12T10:30:40;2.58;;;1.60;;
19030;SDS011;9648;51.130;13.978;2023-08-12T10:33:08;4.80;;;1.73;;
19030;SDS011;9648;51.130;13.978;2023-08-12T10:35:42;3.63;;;1.50;;
19030;SDS011;9648;51.130;13.978;2023-08-12T10:38:10;4.13;;;1.43;;
19030;SDS011;9648;51.130;13.978;2023-08-12T10:40:39;2.20;;;1.48;;
19030;SDS011;9648;51.130;13.978;2023-08-12T10:43:06;2.53;;;1.42;;
19030;SDS011;9648;51.130;13.978;2023-08-12T10:45:44;4.07;;;1.45;;
19030;SDS011;9648;51.130;13.978;2023-08-12T10:48:18;3.35;;;1.50;;
19030;SDS011;9648;51.130;13.978;2023-08-12T10:50:48;2.22;;;1.35;;
19030;SDS011;9648;51.130;13.978;2023-08-12T10:53:21;2.87;;;1.40;;
19030;SDS011;9648;51.130;13.978;2023-08-12T10:55:50;2.10;;;1.40;;
19030;SDS011;9648;51.130;13.978;2023-08-12T10:58:24;3.60;;;1.55;;
19030;SDS011;9648;51.130;13.978;2023-08-12T11:00:54;2.65;;;1.55;;
19030;SDS011;9648;51.130;13.978;2023-08-12T11:03:22;3.00;;;1.60;;
19030;SDS011;9648;51.130;13.978;2023-08-12T11:05:49;3.38;;;1.70;;
19030;SDS011;9648;51.130;13.978;2023-08-12T11:08:23;1.73;;;1.50;;
19030;SDS011;9648;51.130;13.978;2023-08-12T11:10:51;2.30;;;1.52;;
19030;SDS011;9648;51.130;13.978;2023-08-12T11:13:18;2.03;;;1.40;;
19030;SDS011;9648;51.130;13.978;2023-08-12T11:15:47;2.03;;;1.63;;
19030;SDS011;9648;51.130;13.978;2023-08-12T11:18:17;3.50;;;1.67;;
19030;SDS011;9648;51.130;13.978;2023-08-12T11:20:45;3.57;;;1.70;;
19030;SDS011;9648;51.130;13.978;2023-08-12T11:23:13;2.72;;;1.70;;
19030;SDS011;9648;51.130;13.978;2023-08-12T11:25:42;3.70;;;1.63;;
19030;SDS011;9648;51.130;13.978;2023-08-12T11:28:10;2.60;;;1.77;;
19030;SDS011;9648;51.130;13.978;2023-08-12T11:30:39;6.03;;;1.70;;
19030;SDS011;9648;51.130;13.978;2023-08-12T11:33:08;2.42;;;1.75;;
19030;SDS011;9648;51.130;13.978;2023-08-12T11:35:36;3.17;;;1.80;;
19030;SDS011;9648;51.130;13.978;2023-08-12T11:38:04;2.58;;;1.80;;
19030;SDS011;9648;51.130;13.978;2023-08-12T11:40:32;2.53;;;1.80;;
19030;SDS011;9648;51.130;13.978;2023-08-12T11:42:58;2.47;;;1.70;;
19030;SDS011;9648;51.130;13.978;2023-08-12T11:45:26;3.17;;;1.70;;
19030;SDS011;9648;51.130;13.978;2023-08-12T11:47:53;2.70;;;1.90;;
19030;SDS011;9648;51.130;13.978;2023-08-12T11:50:21;3.92;;;2.00;;
19030;SDS011;9648;51.130;13.978;2023-08-12T11:52:50;3.55;;;1.73;;
19030;SDS011;9648;51.130;13.978;2023-08-12T11:55:18;3.22;;;1.75;;
19030;SDS011;9648;51.130;13.978;2023-08-12T11:57:51;3.80;;;1.90;;
19030;SDS011;9648;51.130;13.978;2023-08-12T12:00:18;5.25;;;2.20;;
19030;SDS011;9648;51.130;13.978;2023-08-12T12:02:46;4.78;;;2.10;;
19030;SDS011;9648;51.130;13.978;2023-08-12T12:05:14;3.90;;;2.15;;
19030;SDS011;9648;51.130;13.978;2023-08-12T12:07:41;3.40;;;2.20;;
19030;SDS011;9648;51.130;13.978;2023-08-12T12:10:12;4.53;;;2.30;;
19030;SDS011;9648;51.130;13.978;2023-08-12T12:12:39;3.20;;;2.08;;
19030;SDS011;9648;51.130;13.978;2023-08-12T12:15:06;3.65;;;2.00;;
19030;SDS011;9648;51.130;13.978;2023-08-12T12:17:38;3.00;;;2.00;;
19030;SDS011;9648;51.130;13.978;2023-08-12T12:20:06;3.17;;;2.00;;
19030;SDS011;9648;51.130;13.978;2023-08-12T12:22:35;4.53;;;2.70;;
19030;SDS011;9648;51.130;13.978;2023-08-12T12:25:05;2.47;;;2.00;;
19030;SDS011;9648;51.130;13.978;2023-08-12T12:27:36;3.97;;;2.00;;
19030;SDS011;9648;51.130;13.978;2023-08-12T12:30:03;5.13;;;2.00;;
19030;SDS011;9648;51.130;13.978;2023-08-12T12:32:31;3.40;;;2.40;;
19030;SDS011;9648;51.130;13.978;2023-08-12T12:34:58;2.58;;;2.00;;
19030;SDS011;9648;51.130;13.978;2023-08-12T12:37:25;4.35;;;2.08;;
19030;SDS011;9648;51.130;13.978;2023-08-12T12:39:52;3.40;;;1.95;;
19030;SDS011;9648;51.130;13.978;2023-08-12T12:42:18;2.92;;;1.92;;
19030;SDS011;9648;51.130;13.978;2023-08-12T12:44:47;4.85;;;2.30;;
19030;SDS011;9648;51.130;13.978;2023-08-12T12:47:13;4.03;;;2.50;;
19030;SDS011;9648;51.130;13.978;2023-08-12T12:49:40;4.70;;;2.70;;
19030;SDS011;9648;51.130;13.978;2023-08-12T12:52:09;3.92;;;2.30;;
19030;SDS011;9648;51.130;13.978;2023-08-12T12:54:36;3.78;;;2.20;;
19030;SDS011;9648;51.130;13.978;2023-08-12T12:57:02;4.30;;;2.17;;
19030;SDS011;9648;51.130;13.978;2023-08-12T12:59:29;2.78;;;2.17;;
19030;SDS011;9648;51.130;13.978;2023-08-12T13:01:58;3.63;;;2.20;;
19030;SDS011;9648;51.130;13.978;2023-08-12T13:04:25;3.30;;;2.20;;
19030;SDS011;9648;51.130;13.978;2023-08-12T13:06:51;3.15;;;2.30;;
19030;SDS011;9648;51.130;13.978;2023-08-12T13:09:18;2.72;;;2.03;;
19030;SDS011;9648;51.130;13.978;2023-08-12T13:11:45;3.00;;;2.38;;
19030;SDS011;9648;51.130;13.978;2023-08-12T13:14:12;3.10;;;2.22;;
19030;SDS011;9648;51.130;13.978;2023-08-12T13:16:38;3.90;;;2.33;;
19030;SDS011;9648;51.130;13.978;2023-08-12T13:19:06;4.13;;;2.40;;
19030;SDS011;9648;51.130;13.978;2023-08-12T13:21:33;3.63;;;2.30;;
19030;SDS011;9648;51.130;13.978;2023-08-12T13:24:00;4.88;;;2.08;;
19030;SDS011;9648;51.130;13.978;2023-08-12T13:26:28;4.25;;;2.42;;
19030;SDS011;9648;51.130;13.978;2023-08-12T13:28:55;4.72;;;2.40;;
19030;SDS011;9648;51.130;13.978;2023-08-12T13:31:22;4.78;;;2.30;;
19030;SDS011;9648;51.130;13.978;2023-08-12T13:33:50;4.43;;;2.40;;
19030;SDS011;9648;51.130;13.978;2023-08-12T13:36:18;4.35;;;2.30;;
19030;SDS011;9648;51.130;13.978;2023-08-12T13:38:45;2.88;;;2.40;;
19030;SDS011;9648;51.130;13.978;2023-08-12T13:41:12;3.80;;;2.50;;
19030;SDS011;9648;51.130;13.978;2023-08-12T13:43:38;3.90;;;2.40;;
19030;SDS011;9648;51.130;13.978;2023-08-12T13:46:05;3.42;;;2.53;;
19030;SDS011;9648;51.130;13.978;2023-08-12T13:48:32;3.00;;;2.53;;
19030;SDS011;9648;51.130;13.978;2023-08-12T13:50:59;3.25;;;2.55;;
19030;SDS011;9648;51.130;13.978;2023-08-12T13:53:28;4.82;;;2.60;;
19030;SDS011;9648;51.130;13.978;2023-08-12T13:55:54;6.68;;;2.72;;
19030;SDS011;9648;51.130;13.978;2023-08-12T13:58:21;5.50;;;2.60;;
19030;SDS011;9648;51.130;13.978;2023-08-12T14:00:48;4.00;;;2.40;;
19030;SDS011;9648;51.130;13.978;2023-08-12T14:03:15;4.85;;;2.60;;
19030;SDS011;9648;51.130;13.978;2023-08-12T14:05:41;3.63;;;2.63;;
19030;SDS011;9648;51.130;13.978;2023-08-12T14:08:10;3.10;;;2.30;;
19030;SDS011;9648;51.130;13.978;2023-08-12T14:10:38;4.50;;;2.50;;
19030;SDS011;9648;51.130;13.978;2023-08-12T14:13:05;3.83;;;2.40;;
19030;SDS011;9648;51.130;13.978;2023-08-12T14:15:32;5.45;;;2.58;;
19030;SDS011;9648;51.130;13.978;2023-08-12T14:18:00;4.93;;;2.27;;
19030;SDS011;9648;51.130;13.978;2023-08-12T14:20:27;4.30;;;2.10;;
19030;SDS011;9648;51.130;13.978;2023-08-12T14:22:54;3.20;;;2.20;;
19030;SDS011;9648;51.130;13.978;2023-08-12T14:25:21;3.65;;;2.20;;
19030;SDS011;9648;51.130;13.978;2023-08-12T14:27:49;3.05;;;2.25;;
19030;SDS011;9648;51.130;13.978;2023-08-12T14:30:17;3.30;;;2.20;;
19030;SDS011;9648;51.130;13.978;2023-08-12T14:32:44;3.05;;;2.33;;
19030;SDS011;9648;51.130;13.978;2023-08-12T14:35:11;4.55;;;2.13;;
19030;SDS011;9648;51.130;13.978;2023-08-12T14:37:38;2.22;;;1.95;;
19030;SDS011;9648;51.130;13.978;2023-08-12T14:40:05;3.75;;;2.25;;
19030;SDS011;9648;51.130;13.978;2023-08-12T14:42:33;4.38;;;2.15;;
19030;SDS011;9648;51.130;13.978;2023-08-12T14:45:01;3.65;;;2.30;;
19030;SDS011;9648;51.130;13.978;2023-08-12T14:47:29;6.50;;;2.20;;
19030;SDS011;9648;51.130;13.978;2023-08-12T14:49:56;4.72;;;2.20;;